KPDX/PDX METAR and TAF weather

Enter ICAO airport designator
Station Type Date Time Source
KPDX METAR 2021/10/20 05:53 UTC NOAA

KPDX 200553Z 28006KT 10SM FEW080 BKN110 OVC120 12/09 A2962 RMK AO2 SLP031 T01220094 10156 20117 55004


Station Type Date Time Source
KPDX Decoded METAR 2021/10/20 05:53 UTC NOAA

PORTLAND INTERNATIONAL AIRPORT, OR, United States (KPDX) 45-35N 122-36W 7M
Oct 20, 2021 - 01:53 AM EDT / 2021.10.20 0553 UTC
Wind: from the W (280 degrees) at 7 MPH (6 KT):0
Visibility: 10 mile(s):0
Sky conditions: overcast
Temperature: 54.0 F (12.2 C)
Dew Point: 48.9 F (9.4 C)
Relative Humidity: 82%
Pressure (altimeter): 29.62 in. Hg (1003 hPa)
Pressure tendency: 0.01 inches (0.4 hPa) lower than three hours ago
ob: KPDX 200553Z 28006KT 10SM FEW080 BKN110 OVC120 12/09 A2962 RMK AO2 SLP031 T01220094 10156 20117 55004
cycle: 6

Station Type Date Time Source
KPDX TAF 2021/10/20 06:22 UTC NOAA

TAF KPDX 200520Z 2006/2106 14006KT P6SM OVC120
FM200700 VRB04KT P6SM -RA OVC080
FM201200 11009KT P6SM VCSH OVC045 WS020/18035KT
FM201300 19019G30KT P6SM -SHRA OVC035 WS020/19040KT
FM201500 19013G23KT P6SM -SHRA OVC035
FM201800 19012KT P6SM VCSH BKN040

Example: see airport list